sensor_id;sensor_type;location;lat;lon;timestamp;temperature;humidity
27671;DHT22;15077;49.704;9.908;2024-03-29T00:02:13;10.20;57.60
27671;DHT22;15077;49.704;9.908;2024-03-29T00:04:40;10.20;57.60
27671;DHT22;15077;49.704;9.908;2024-03-29T00:07:05;10.10;57.60
27671;DHT22;15077;49.704;9.908;2024-03-29T00:09:31;10.10;57.50
27671;DHT22;15077;49.704;9.908;2024-03-29T00:11:57;10.10;57.50
27671;DHT22;15077;49.704;9.908;2024-03-29T00:14:23;10.10;57.60
27671;DHT22;15077;49.704;9.908;2024-03-29T00:16:53;10.10;57.60
27671;DHT22;15077;49.704;9.908;2024-03-29T00:19:19;10.10;57.60
27671;DHT22;15077;49.704;9.908;2024-03-29T00:21:46;10.10;57.60
27671;DHT22;15077;49.704;9.908;2024-03-29T00:24:13;10.10;57.60
27671;DHT22;15077;49.704;9.908;2024-03-29T00:26:39;10.00;57.60
27671;DHT22;15077;49.704;9.908;2024-03-29T00:29:04;10.00;57.70
27671;DHT22;15077;49.704;9.908;2024-03-29T00:31:30;9.90;57.70
27671;DHT22;15077;49.704;9.908;2024-03-29T00:33:56;9.90;57.70
27671;DHT22;15077;49.704;9.908;2024-03-29T00:36:21;9.90;57.80
27671;DHT22;15077;49.704;9.908;2024-03-29T00:38:47;9.80;57.80
27671;DHT22;15077;49.704;9.908;2024-03-29T00:41:13;9.80;57.80
27671;DHT22;15077;49.704;9.908;2024-03-29T00:43:38;9.80;57.80
27671;DHT22;15077;49.704;9.908;2024-03-29T00:46:04;9.70;57.80
27671;DHT22;15077;49.704;9.908;2024-03-29T00:48:29;9.70;57.90
27671;DHT22;15077;49.704;9.908;2024-03-29T00:50:55;9.70;57.90
27671;DHT22;15077;49.704;9.908;2024-03-29T00:53:21;9.70;58.00
27671;DHT22;15077;49.704;9.908;2024-03-29T00:55:46;9.70;58.00
27671;DHT22;15077;49.704;9.908;2024-03-29T00:58:12;9.70;58.10
27671;DHT22;15077;49.704;9.908;2024-03-29T01:00:38;9.70;58.10
27671;DHT22;15077;49.704;9.908;2024-03-29T01:03:04;9.70;58.10
27671;DHT22;15077;49.704;9.908;2024-03-29T01:05:29;9.60;58.10
27671;DHT22;15077;49.704;9.908;2024-03-29T01:07:55;9.60;58.10
27671;DHT22;15077;49.704;9.908;2024-03-29T01:10:20;9.60;58.10
27671;DHT22;15077;49.704;9.908;2024-03-29T01:12:47;9.60;58.10
27671;DHT22;15077;49.704;9.908;2024-03-29T01:15:13;9.60;58.20
27671;DHT22;15077;49.704;9.908;2024-03-29T01:17:39;9.60;58.20
27671;DHT22;15077;49.704;9.908;2024-03-29T01:20:04;9.60;58.20
27671;DHT22;15077;49.704;9.908;2024-03-29T01:22:30;9.70;58.30
27671;DHT22;15077;49.704;9.908;2024-03-29T01:24:56;9.70;58.30
27671;DHT22;15077;49.704;9.908;2024-03-29T01:27:23;9.70;58.90
27671;DHT22;15077;49.704;9.908;2024-03-29T01:29:48;9.70;58.30
27671;DHT22;15077;49.704;9.908;2024-03-29T01:32:14;9.70;58.40
27671;DHT22;15077;49.704;9.908;2024-03-29T01:34:39;9.70;58.40
27671;DHT22;15077;49.704;9.908;2024-03-29T01:37:05;9.70;58.50
27671;DHT22;15077;49.704;9.908;2024-03-29T01:39:30;9.70;59.00
27671;DHT22;15077;49.704;9.908;2024-03-29T01:41:56;9.70;58.40
27671;DHT22;15077;49.704;9.908;2024-03-29T01:44:22;9.70;58.60
27671;DHT22;15077;49.704;9.908;2024-03-29T01:46:48;9.70;58.50
27671;DHT22;15077;49.704;9.908;2024-03-29T01:49:14;9.70;58.50
27671;DHT22;15077;49.704;9.908;2024-03-29T01:51:40;9.70;58.50
27671;DHT22;15077;49.704;9.908;2024-03-29T01:54:06;9.70;58.50
27671;DHT22;15077;49.704;9.908;2024-03-29T01:56:37;9.70;58.50
27671;DHT22;15077;49.704;9.908;2024-03-29T01:59:04;9.70;58.50
27671;DHT22;15077;49.704;9.908;2024-03-29T02:01:33;9.80;58.60
27671;DHT22;15077;49.704;9.908;2024-03-29T02:04:00;9.80;58.60
27671;DHT22;15077;49.704;9.908;2024-03-29T02:06:26;9.80;58.60
27671;DHT22;15077;49.704;9.908;2024-03-29T02:08:52;9.80;58.60
27671;DHT22;15077;49.704;9.908;2024-03-29T02:11:21;9.90;58.70
27671;DHT22;15077;49.704;9.908;2024-03-29T02:13:47;9.90;58.70
27671;DHT22;15077;49.704;9.908;2024-03-29T02:16:14;9.90;58.60
27671;DHT22;15077;49.704;9.908;2024-03-29T02:18:40;9.90;58.60
27671;DHT22;15077;49.704;9.908;2024-03-29T02:21:08;10.00;58.70
27671;DHT22;15077;49.704;9.908;2024-03-29T02:23:35;10.00;58.70
27671;DHT22;15077;49.704;9.908;2024-03-29T02:26:05;10.00;58.70
27671;DHT22;15077;49.704;9.908;2024-03-29T02:28:31;10.00;58.80
27671;DHT22;15077;49.704;9.908;2024-03-29T02:30:56;10.00;58.80
27671;DHT22;15077;49.704;9.908;2024-03-29T02:33:22;10.10;58.80
27671;DHT22;15077;49.704;9.908;2024-03-29T02:35:48;10.10;58.80
27671;DHT22;15077;49.704;9.908;2024-03-29T02:38:13;10.10;58.90
27671;DHT22;15077;49.704;9.908;2024-03-29T02:40:39;10.10;58.90
27671;DHT22;15077;49.704;9.908;2024-03-29T02:43:05;10.10;58.90
27671;DHT22;15077;49.704;9.908;2024-03-29T02:45:31;10.20;58.90
27671;DHT22;15077;49.704;9.908;2024-03-29T02:47:56;10.20;59.00
27671;DHT22;15077;49.704;9.908;2024-03-29T02:50:22;10.20;58.90
27671;DHT22;15077;49.704;9.908;2024-03-29T02:52:47;10.30;58.90
27671;DHT22;15077;49.704;9.908;2024-03-29T02:55:13;10.30;59.00
27671;DHT22;15077;49.704;9.908;2024-03-29T02:57:39;10.30;58.90
27671;DHT22;15077;49.704;9.908;2024-03-29T03:00:08;10.30;58.90
27671;DHT22;15077;49.704;9.908;2024-03-29T03:02:40;10.40;58.90
27671;DHT22;15077;49.704;9.908;2024-03-29T03:05:06;10.40;58.90
27671;DHT22;15077;49.704;9.908;2024-03-29T03:07:32;10.50;58.90
27671;DHT22;15077;49.704;9.908;2024-03-29T03:10:18;10.50;58.90
27671;DHT22;15077;49.704;9.908;2024-03-29T03:13:02;10.50;58.90
27671;DHT22;15077;49.704;9.908;2024-03-29T03:15:28;10.50;58.90
27671;DHT22;15077;49.704;9.908;2024-03-29T03:17:53;10.60;58.90
27671;DHT22;15077;49.704;9.908;2024-03-29T03:20:19;10.60;58.90
27671;DHT22;15077;49.704;9.908;2024-03-29T03:22:45;10.60;58.90
27671;DHT22;15077;49.704;9.908;2024-03-29T03:25:10;10.60;58.80
27671;DHT22;15077;49.704;9.908;2024-03-29T03:27:36;10.70;58.90
27671;DHT22;15077;49.704;9.908;2024-03-29T03:30:02;10.70;58.90
27671;DHT22;15077;49.704;9.908;2024-03-29T03:32:27;10.70;58.80
27671;DHT22;15077;49.704;9.908;2024-03-29T03:34:53;10.70;58.80
27671;DHT22;15077;49.704;9.908;2024-03-29T03:37:19;10.70;59.40
27671;DHT22;15077;49.704;9.908;2024-03-29T03:39:44;10.80;58.80
27671;DHT22;15077;49.704;9.908;2024-03-29T03:42:10;10.80;58.80
27671;DHT22;15077;49.704;9.908;2024-03-29T03:44:35;10.80;58.80
27671;DHT22;15077;49.704;9.908;2024-03-29T03:47:01;10.80;58.80
27671;DHT22;15077;49.704;9.908;2024-03-29T03:49:27;10.90;59.00
27671;DHT22;15077;49.704;9.908;2024-03-29T03:51:52;10.90;58.80
27671;DHT22;15077;49.704;9.908;2024-03-29T03:54:18;10.90;58.80
27671;DHT22;15077;49.704;9.908;2024-03-29T03:56:43;10.90;58.90
27671;DHT22;15077;49.704;9.908;2024-03-29T03:59:09;10.90;58.80
27671;DHT22;15077;49.704;9.908;2024-03-29T04:01:34;10.90;58.90
27671;DHT22;15077;49.704;9.908;2024-03-29T04:04:00;10.90;58.90
27671;DHT22;15077;49.704;9.908;2024-03-29T04:06:26;11.00;59.50
27671;DHT22;15077;49.704;9.908;2024-03-29T04:08:52;10.90;59.10
27671;DHT22;15077;49.704;9.908;2024-03-29T04:11:17;11.00;58.90
27671;DHT22;15077;49.704;9.908;2024-03-29T04:13:45;11.00;58.90
27671;DHT22;15077;49.704;9.908;2024-03-29T04:16:11;11.00;58.90
27671;DHT22;15077;49.704;9.908;2024-03-29T04:18:36;11.00;58.80
27671;DHT22;15077;49.704;9.908;2024-03-29T04:21:02;11.00;58.80
27671;DHT22;15077;49.704;9.908;2024-03-29T04:23:31;11.00;58.80
27671;DHT22;15077;49.704;9.908;2024-03-29T04:25:57;11.00;58.80
27671;DHT22;15077;49.704;9.908;2024-03-29T04:28:24;11.00;58.80
27671;DHT22;15077;49.704;9.908;2024-03-29T04:30:53;11.10;58.80
27671;DHT22;15077;49.704;9.908;2024-03-29T04:33:20;11.10;58.80
27671;DHT22;15077;49.704;9.908;2024-03-29T04:36:04;11.10;58.70
27671;DHT22;15077;49.704;9.908;2024-03-29T04:38:31;11.10;58.60
27671;DHT22;15077;49.704;9.908;2024-03-29T04:40:57;11.10;58.60
27671;DHT22;15077;49.704;9.908;2024-03-29T04:43:24;11.10;58.60
27671;DHT22;15077;49.704;9.908;2024-03-29T04:46:01;11.10;58.60
27671;DHT22;15077;49.704;9.908;2024-03-29T04:48:34;11.20;58.80
27671;DHT22;15077;49.704;9.908;2024-03-29T04:51:01;11.20;58.70
27671;DHT22;15077;49.704;9.908;2024-03-29T04:53:26;11.20;58.60
27671;DHT22;15077;49.704;9.908;2024-03-29T04:55:55;11.20;58.60
27671;DHT22;15077;49.704;9.908;2024-03-29T04:58:22;11.20;58.60
27671;DHT22;15077;49.704;9.908;2024-03-29T05:00:48;11.30;58.80
27671;DHT22;15077;49.704;9.908;2024-03-29T05:03:16;11.30;58.80
27671;DHT22;15077;49.704;9.908;2024-03-29T05:05:43;11.30;58.90
27671;DHT22;15077;49.704;9.908;2024-03-29T05:08:09;11.40;59.00
27671;DHT22;15077;49.704;9.908;2024-03-29T05:10:34;11.40;59.10
27671;DHT22;15077;49.704;9.908;2024-03-29T05:13:00;11.50;59.20
27671;DHT22;15077;49.704;9.908;2024-03-29T05:15:29;11.50;59.30
27671;DHT22;15077;49.704;9.908;2024-03-29T05:17:54;11.60;59.40
27671;DHT22;15077;49.704;9.908;2024-03-29T05:20:20;11.60;59.60
27671;DHT22;15077;49.704;9.908;2024-03-29T05:22:45;11.60;59.40
27671;DHT22;15077;49.704;9.908;2024-03-29T05:25:11;11.70;59.50
27671;DHT22;15077;49.704;9.908;2024-03-29T05:27:37;11.70;59.50
27671;DHT22;15077;49.704;9.908;2024-03-29T05:30:02;11.80;59.60
27671;DHT22;15077;49.704;9.908;2024-03-29T05:32:29;11.80;59.60
27671;DHT22;15077;49.704;9.908;2024-03-29T05:34:55;11.80;59.50
27671;DHT22;15077;49.704;9.908;2024-03-29T05:37:21;11.80;59.60
27671;DHT22;15077;49.704;9.908;2024-03-29T05:39:50;11.90;59.70
27671;DHT22;15077;49.704;9.908;2024-03-29T05:42:27;11.90;59.70
27671;DHT22;15077;49.704;9.908;2024-03-29T05:44:53;11.90;59.60
27671;DHT22;15077;49.704;9.908;2024-03-29T05:47:19;11.90;59.70
27671;DHT22;15077;49.704;9.908;2024-03-29T05:49:45;11.90;59.60
27671;DHT22;15077;49.704;9.908;2024-03-29T05:52:11;11.90;59.50
27671;DHT22;15077;49.704;9.908;2024-03-29T05:54:45;11.90;59.50
27671;DHT22;15077;49.704;9.908;2024-03-29T05:57:11;12.00;59.60
27671;DHT22;15077;49.704;9.908;2024-03-29T05:59:37;12.00;59.60
27671;DHT22;15077;49.704;9.908;2024-03-29T06:02:03;12.00;59.50
27671;DHT22;15077;49.704;9.908;2024-03-29T06:04:30;12.00;59.50
27671;DHT22;15077;49.704;9.908;2024-03-29T06:06:59;12.00;59.40
27671;DHT22;15077;49.704;9.908;2024-03-29T06:09:25;12.00;59.40
27671;DHT22;15077;49.704;9.908;2024-03-29T06:11:51;12.00;59.40
27671;DHT22;15077;49.704;9.908;2024-03-29T06:14:17;12.00;59.50
27671;DHT22;15077;49.704;9.908;2024-03-29T06:17:01;12.00;59.40
27671;DHT22;15077;49.704;9.908;2024-03-29T06:19:45;12.00;59.40
27671;DHT22;15077;49.704;9.908;2024-03-29T06:22:11;12.10;59.40
27671;DHT22;15077;49.704;9.908;2024-03-29T06:24:37;12.10;59.50
27671;DHT22;15077;49.704;9.908;2024-03-29T06:27:04;12.10;59.60
27671;DHT22;15077;49.704;9.908;2024-03-29T06:29:30;12.10;59.60
27671;DHT22;15077;49.704;9.908;2024-03-29T06:31:55;12.10;59.60
27671;DHT22;15077;49.704;9.908;2024-03-29T06:34:21;12.10;59.60
27671;DHT22;15077;49.704;9.908;2024-03-29T06:36:47;12.10;59.70
27671;DHT22;15077;49.704;9.908;2024-03-29T06:39:12;12.20;59.80
27671;DHT22;15077;49.704;9.908;2024-03-29T06:41:38;12.20;59.80
27671;DHT22;15077;49.704;9.908;2024-03-29T06:44:03;12.20;59.80
27671;DHT22;15077;49.704;9.908;2024-03-29T06:46:29;12.20;59.80
27671;DHT22;15077;49.704;9.908;2024-03-29T06:48:55;12.20;59.80
27671;DHT22;15077;49.704;9.908;2024-03-29T06:51:20;12.20;59.90
27671;DHT22;15077;49.704;9.908;2024-03-29T06:53:46;12.20;59.90
27671;DHT22;15077;49.704;9.908;2024-03-29T06:56:11;12.20;59.90
27671;DHT22;15077;49.704;9.908;2024-03-29T06:58:37;12.30;60.00
27671;DHT22;15077;49.704;9.908;2024-03-29T07:01:03;12.30;60.10
27671;DHT22;15077;49.704;9.908;2024-03-29T07:03:29;12.30;60.10
27671;DHT22;15077;49.704;9.908;2024-03-29T07:05:54;12.30;60.20
27671;DHT22;15077;49.704;9.908;2024-03-29T07:08:20;12.30;60.30
27671;DHT22;15077;49.704;9.908;2024-03-29T07:10:45;12.30;60.30
27671;DHT22;15077;49.704;9.908;2024-03-29T07:13:11;12.30;60.30
27671;DHT22;15077;49.704;9.908;2024-03-29T07:15:37;12.40;60.40
27671;DHT22;15077;49.704;9.908;2024-03-29T07:18:03;12.40;60.50
27671;DHT22;15077;49.704;9.908;2024-03-29T07:20:29;12.40;60.40
27671;DHT22;15077;49.704;9.908;2024-03-29T07:22:55;12.40;60.30
27671;DHT22;15077;49.704;9.908;2024-03-29T07:25:20;12.50;60.60
27671;DHT22;15077;49.704;9.908;2024-03-29T07:27:46;12.50;60.20
27671;DHT22;15077;49.704;9.908;2024-03-29T07:30:12;12.50;60.00
27671;DHT22;15077;49.704;9.908;2024-03-29T07:32:39;12.50;60.00
27671;DHT22;15077;49.704;9.908;2024-03-29T07:35:05;12.60;60.10
27671;DHT22;15077;49.704;9.908;2024-03-29T07:37:31;12.60;60.00
27671;DHT22;15077;49.704;9.908;2024-03-29T07:39:56;12.70;60.10
27671;DHT22;15077;49.704;9.908;2024-03-29T07:42:22;12.70;60.10
27671;DHT22;15077;49.704;9.908;2024-03-29T07:44:48;12.80;60.10
27671;DHT22;15077;49.704;9.908;2024-03-29T07:47:13;12.80;60.20
27671;DHT22;15077;49.704;9.908;2024-03-29T07:49:39;12.90;60.10
27671;DHT22;15077;49.704;9.908;2024-03-29T07:52:05;12.90;60.00
27671;DHT22;15077;49.704;9.908;2024-03-29T07:54:32;13.00;60.00
27671;DHT22;15077;49.704;9.908;2024-03-29T07:56:58;13.00;60.00
27671;DHT22;15077;49.704;9.908;2024-03-29T07:59:23;13.10;60.00
27671;DHT22;15077;49.704;9.908;2024-03-29T08:01:49;13.10;60.00
27671;DHT22;15077;49.704;9.908;2024-03-29T08:04:15;13.20;60.00
27671;DHT22;15077;49.704;9.908;2024-03-29T08:06:41;13.30;60.00
27671;DHT22;15077;49.704;9.908;2024-03-29T08:09:06;13.30;59.90
27671;DHT22;15077;49.704;9.908;2024-03-29T08:11:32;13.40;59.80
27671;DHT22;15077;49.704;9.908;2024-03-29T08:13:58;13.40;59.90
27671;DHT22;15077;49.704;9.908;2024-03-29T08:16:23;13.50;59.90
27671;DHT22;15077;49.704;9.908;2024-03-29T08:18:49;13.50;60.00
27671;DHT22;15077;49.704;9.908;2024-03-29T08:21:15;13.60;60.00
27671;DHT22;15077;49.704;9.908;2024-03-29T08:23:40;13.60;60.00
27671;DHT22;15077;49.704;9.908;2024-03-29T08:26:06;13.60;60.00
27671;DHT22;15077;49.704;9.908;2024-03-29T08:28:33;13.70;60.00
27671;DHT22;15077;49.704;9.908;2024-03-29T08:31:01;13.70;59.90
27671;DHT22;15077;49.704;9.908;2024-03-29T08:33:28;13.70;59.80
27671;DHT22;15077;49.704;9.908;2024-03-29T08:35:55;13.80;59.80
27671;DHT22;15077;49.704;9.908;2024-03-29T08:38:21;13.80;59.80
27671;DHT22;15077;49.704;9.908;2024-03-29T08:40:47;13.90;60.00
27671;DHT22;15077;49.704;9.908;2024-03-29T08:43:14;13.90;60.00
27671;DHT22;15077;49.704;9.908;2024-03-29T08:45:41;13.90;60.00
27671;DHT22;15077;49.704;9.908;2024-03-29T08:48:07;13.90;59.90
27671;DHT22;15077;49.704;9.908;2024-03-29T08:50:33;13.90;59.90
27671;DHT22;15077;49.704;9.908;2024-03-29T08:53:01;14.00;60.10
27671;DHT22;15077;49.704;9.908;2024-03-29T08:55:31;13.90;60.00
27671;DHT22;15077;49.704;9.908;2024-03-29T08:57:58;14.00;60.10
27671;DHT22;15077;49.704;9.908;2024-03-29T09:00:28;13.90;60.00
27671;DHT22;15077;49.704;9.908;2024-03-29T09:02:55;13.90;60.10
27671;DHT22;15077;49.704;9.908;2024-03-29T09:05:21;13.90;60.40
27671;DHT22;15077;49.704;9.908;2024-03-29T09:07:48;13.90;60.30
27671;DHT22;15077;49.704;9.908;2024-03-29T09:10:14;13.90;60.50
27671;DHT22;15077;49.704;9.908;2024-03-29T09:12:40;13.90;60.70
27671;DHT22;15077;49.704;9.908;2024-03-29T09:15:06;13.90;60.80
27671;DHT22;15077;49.704;9.908;2024-03-29T09:17:36;13.90;60.80
27671;DHT22;15077;49.704;9.908;2024-03-29T09:20:01;13.90;60.90
27671;DHT22;15077;49.704;9.908;2024-03-29T09:22:30;13.80;61.30
27671;DHT22;15077;49.704;9.908;2024-03-29T09:24:55;13.80;61.60
27671;DHT22;15077;49.704;9.908;2024-03-29T09:27:21;13.80;61.50
27671;DHT22;15077;49.704;9.908;2024-03-29T09:29:49;13.80;61.70
27671;DHT22;15077;49.704;9.908;2024-03-29T09:32:15;13.70;62.00
27671;DHT22;15077;49.704;9.908;2024-03-29T09:34:45;13.70;62.00
27671;DHT22;15077;49.704;9.908;2024-03-29T09:37:11;13.70;62.00
27671;DHT22;15077;49.704;9.908;2024-03-29T09:39:36;13.60;61.90
27671;DHT22;15077;49.704;9.908;2024-03-29T09:42:02;13.60;61.90
27671;DHT22;15077;49.704;9.908;2024-03-29T09:44:31;13.50;62.10
27671;DHT22;15077;49.704;9.908;2024-03-29T09:47:04;13.50;62.60
27671;DHT22;15077;49.704;9.908;2024-03-29T09:49:33;13.40;62.30
27671;DHT22;15077;49.704;9.908;2024-03-29T09:51:59;13.40;62.40
27671;DHT22;15077;49.704;9.908;2024-03-29T09:54:29;13.40;62.80
27671;DHT22;15077;49.704;9.908;2024-03-29T09:56:55;13.30;63.10
27671;DHT22;15077;49.704;9.908;2024-03-29T09:59:22;13.20;63.30
27671;DHT22;15077;49.704;9.908;2024-03-29T10:01:48;13.20;62.90
27671;DHT22;15077;49.704;9.908;2024-03-29T10:04:15;13.20;62.80
27671;DHT22;15077;49.704;9.908;2024-03-29T10:06:42;13.20;63.40
27671;DHT22;15077;49.704;9.908;2024-03-29T10:09:10;13.20;63.40
27671;DHT22;15077;49.704;9.908;2024-03-29T10:11:37;13.10;63.60
27671;DHT22;15077;49.704;9.908;2024-03-29T10:14:03;13.20;63.40
27671;DHT22;15077;49.704;9.908;2024-03-29T10:16:32;13.20;63.60
27671;DHT22;15077;49.704;9.908;2024-03-29T10:18:59;13.20;64.10
27671;DHT22;15077;49.704;9.908;2024-03-29T10:21:24;13.10;64.40
27671;DHT22;15077;49.704;9.908;2024-03-29T10:23:51;13.10;65.00
27671;DHT22;15077;49.704;9.908;2024-03-29T10:26:17;13.10;64.80
27671;DHT22;15077;49.704;9.908;2024-03-29T10:28:43;13.10;64.40
27671;DHT22;15077;49.704;9.908;2024-03-29T10:31:09;13.10;64.40
27671;DHT22;15077;49.704;9.908;2024-03-29T10:33:34;13.20;64.10
27671;DHT22;15077;49.704;9.908;2024-03-29T10:36:00;13.20;64.30
27671;DHT22;15077;49.704;9.908;2024-03-29T10:38:30;13.20;64.30
27671;DHT22;15077;49.704;9.908;2024-03-29T10:40:56;13.30;64.40
27671;DHT22;15077;49.704;9.908;2024-03-29T10:43:22;13.30;64.60
27671;DHT22;15077;49.704;9.908;2024-03-29T10:45:50;13.30;64.60
27671;DHT22;15077;49.704;9.908;2024-03-29T10:48:17;13.40;64.60
27671;DHT22;15077;49.704;9.908;2024-03-29T10:50:47;13.40;64.60
27671;DHT22;15077;49.704;9.908;2024-03-29T10:53:16;13.50;64.70
27671;DHT22;15077;49.704;9.908;2024-03-29T10:55:42;13.50;64.60
27671;DHT22;15077;49.704;9.908;2024-03-29T10:58:11;13.60;65.10
27671;DHT22;15077;49.704;9.908;2024-03-29T11:00:38;13.70;64.60
27671;DHT22;15077;49.704;9.908;2024-03-29T11:03:20;13.70;64.50
27671;DHT22;15077;49.704;9.908;2024-03-29T11:05:59;13.70;64.60
27671;DHT22;15077;49.704;9.908;2024-03-29T11:08:31;13.80;64.50
27671;DHT22;15077;49.704;9.908;2024-03-29T11:11:00;13.90;64.60
27671;DHT22;15077;49.704;9.908;2024-03-29T11:16:32;14.00;64.70
27671;DHT22;15077;49.704;9.908;2024-03-29T11:18:58;14.00;64.60
27671;DHT22;15077;49.704;9.908;2024-03-29T11:21:24;14.10;65.10
27671;DHT22;15077;49.704;9.908;2024-03-29T11:23:53;14.10;65.10
27671;DHT22;15077;49.704;9.908;2024-03-29T11:26:22;14.10;65.20
27671;DHT22;15077;49.704;9.908;2024-03-29T11:28:51;14.20;65.30
27671;DHT22;15077;49.704;9.908;2024-03-29T11:31:21;14.30;65.40
27671;DHT22;15077;49.704;9.908;2024-03-29T11:33:48;14.30;66.10
27671;DHT22;15077;49.704;9.908;2024-03-29T11:38:47;14.30;65.80
27671;DHT22;15077;49.704;9.908;2024-03-29T11:43:41;14.40;66.00
27671;DHT22;15077;49.704;9.908;2024-03-29T11:46:09;14.50;65.70
27671;DHT22;15077;49.704;9.908;2024-03-29T11:48:36;14.50;65.50
27671;DHT22;15077;49.704;9.908;2024-03-29T11:51:02;14.50;65.70
27671;DHT22;15077;49.704;9.908;2024-03-29T11:53:30;14.50;65.40
27671;DHT22;15077;49.704;9.908;2024-03-29T11:55:57;14.60;65.30
27671;DHT22;15077;49.704;9.908;2024-03-29T11:58:27;14.60;65.30
27671;DHT22;15077;49.704;9.908;2024-03-29T12:00:54;14.70;65.30
27671;DHT22;15077;49.704;9.908;2024-03-29T12:03:21;14.70;65.30
27671;DHT22;15077;49.704;9.908;2024-03-29T12:05:48;14.80;65.30
27671;DHT22;15077;49.704;9.908;2024-03-29T12:08:16;14.80;65.50
27671;DHT22;15077;49.704;9.908;2024-03-29T12:10:42;14.80;65.30
27671;DHT22;15077;49.704;9.908;2024-03-29T12:13:08;14.90;65.60
27671;DHT22;15077;49.704;9.908;2024-03-29T12:15:34;15.00;65.70
27671;DHT22;15077;49.704;9.908;2024-03-29T12:18:01;15.00;65.90
27671;DHT22;15077;49.704;9.908;2024-03-29T12:20:36;15.10;65.90
27671;DHT22;15077;49.704;9.908;2024-03-29T12:23:03;15.10;65.40
27671;DHT22;15077;49.704;9.908;2024-03-29T12:25:30;15.20;65.40
27671;DHT22;15077;49.704;9.908;2024-03-29T12:27:57;15.20;65.40
27671;DHT22;15077;49.704;9.908;2024-03-29T12:30:24;15.30;65.50
27671;DHT22;15077;49.704;9.908;2024-03-29T12:33:03;15.30;65.30
27671;DHT22;15077;49.704;9.908;2024-03-29T12:35:32;15.40;65.20
27671;DHT22;15077;49.704;9.908;2024-03-29T12:37:59;15.40;65.30
27671;DHT22;15077;49.704;9.908;2024-03-29T12:40:26;15.50;65.40
27671;DHT22;15077;49.704;9.908;2024-03-29T12:42:55;15.50;65.40
27671;DHT22;15077;49.704;9.908;2024-03-29T12:45:21;15.50;65.20
27671;DHT22;15077;49.704;9.908;2024-03-29T12:47:48;15.60;65.30
27671;DHT22;15077;49.704;9.908;2024-03-29T12:52:58;15.60;65.20
27671;DHT22;15077;49.704;9.908;2024-03-29T12:55:25;15.60;65.20
27671;DHT22;15077;49.704;9.908;2024-03-29T12:57:56;15.70;65.20
27671;DHT22;15077;49.704;9.908;2024-03-29T13:00:23;15.70;65.40
27671;DHT22;15077;49.704;9.908;2024-03-29T13:02:49;15.70;65.20
27671;DHT22;15077;49.704;9.908;2024-03-29T13:05:15;15.70;65.50
27671;DHT22;15077;49.704;9.908;2024-03-29T13:07:41;15.70;65.50
27671;DHT22;15077;49.704;9.908;2024-03-29T13:10:07;15.70;65.70
27671;DHT22;15077;49.704;9.908;2024-03-29T13:12:39;15.70;65.60
27671;DHT22;15077;49.704;9.908;2024-03-29T13:15:41;15.80;65.80
27671;DHT22;15077;49.704;9.908;2024-03-29T13:18:01;15.70;65.80
27671;DHT22;15077;49.704;9.908;2024-03-29T13:20:27;15.70;66.00
27671;DHT22;15077;49.704;9.908;2024-03-29T13:22:53;15.80;66.10
27671;DHT22;15077;49.704;9.908;2024-03-29T13:25:19;15.80;66.30
27671;DHT22;15077;49.704;9.908;2024-03-29T13:27:49;15.80;66.60
27671;DHT22;15077;49.704;9.908;2024-03-29T13:30:24;15.80;66.70
27671;DHT22;15077;49.704;9.908;2024-03-29T13:32:51;15.80;66.50
27671;DHT22;15077;49.704;9.908;2024-03-29T13:35:18;15.80;66.70
27671;DHT22;15077;49.704;9.908;2024-03-29T13:37:47;15.80;66.50
27671;DHT22;15077;49.704;9.908;2024-03-29T13:40:14;15.80;66.70
27671;DHT22;15077;49.704;9.908;2024-03-29T13:42:40;15.90;66.50
27671;DHT22;15077;49.704;9.908;2024-03-29T13:45:07;15.90;66.70
27671;DHT22;15077;49.704;9.908;2024-03-29T13:47:39;15.90;67.20
27671;DHT22;15077;49.704;9.908;2024-03-29T13:50:07;15.90;66.70
27671;DHT22;15077;49.704;9.908;2024-03-29T13:52:34;16.00;67.20
27671;DHT22;15077;49.704;9.908;2024-03-29T13:55:00;15.90;66.70
27671;DHT22;15077;49.704;9.908;2024-03-29T13:57:26;15.90;66.60
27671;DHT22;15077;49.704;9.908;2024-03-29T13:59:52;16.00;66.60
27671;DHT22;15077;49.704;9.908;2024-03-29T14:02:18;16.00;66.40
27671;DHT22;15077;49.704;9.908;2024-03-29T14:04:45;16.00;66.30
27671;DHT22;15077;49.704;9.908;2024-03-29T14:07:12;16.10;66.30
27671;DHT22;15077;49.704;9.908;2024-03-29T14:09:39;16.10;66.20
27671;DHT22;15077;49.704;9.908;2024-03-29T14:12:14;16.10;66.10
27671;DHT22;15077;49.704;9.908;2024-03-29T14:14:40;16.20;66.30
27671;DHT22;15077;49.704;9.908;2024-03-29T14:17:09;16.20;66.10
27671;DHT22;15077;49.704;9.908;2024-03-29T14:19:38;16.30;66.10
27671;DHT22;15077;49.704;9.908;2024-03-29T14:22:05;16.30;66.00
27671;DHT22;15077;49.704;9.908;2024-03-29T14:24:31;16.30;66.00
27671;DHT22;15077;49.704;9.908;2024-03-29T14:27:04;16.40;65.90
27671;DHT22;15077;49.704;9.908;2024-03-29T14:29:30;16.40;65.80
27671;DHT22;15077;49.704;9.908;2024-03-29T14:31:59;16.40;65.70
27671;DHT22;15077;49.704;9.908;2024-03-29T14:34:26;16.50;65.60
27671;DHT22;15077;49.704;9.908;2024-03-29T14:36:52;16.50;65.60
27671;DHT22;15077;49.704;9.908;2024-03-29T14:39:18;16.50;65.50
27671;DHT22;15077;49.704;9.908;2024-03-29T14:41:46;16.50;66.20
27671;DHT22;15077;49.704;9.908;2024-03-29T14:44:17;16.50;65.70
27671;DHT22;15077;49.704;9.908;2024-03-29T14:46:46;16.50;65.90
27671;DHT22;15077;49.704;9.908;2024-03-29T14:49:12;16.60;66.00
27671;DHT22;15077;49.704;9.908;2024-03-29T14:51:39;16.60;65.90
27671;DHT22;15077;49.704;9.908;2024-03-29T14:54:05;16.70;65.90
27671;DHT22;15077;49.704;9.908;2024-03-29T14:56:32;16.80;66.20
27671;DHT22;15077;49.704;9.908;2024-03-29T14:59:03;16.80;66.20
27671;DHT22;15077;49.704;9.908;2024-03-29T15:01:30;16.90;66.00
27671;DHT22;15077;49.704;9.908;2024-03-29T15:03:56;17.00;66.50
27671;DHT22;15077;49.704;9.908;2024-03-29T15:06:22;17.10;65.90
27671;DHT22;15077;49.704;9.908;2024-03-29T15:08:49;17.10;65.80
27671;DHT22;15077;49.704;9.908;2024-03-29T15:11:17;17.20;65.80
27671;DHT22;15077;49.704;9.908;2024-03-29T15:13:43;17.30;65.90
27671;DHT22;15077;49.704;9.908;2024-03-29T15:16:09;17.30;65.70
27671;DHT22;15077;49.704;9.908;2024-03-29T15:18:34;17.40;65.50
27671;DHT22;15077;49.704;9.908;2024-03-29T15:21:01;17.50;65.40
27671;DHT22;15077;49.704;9.908;2024-03-29T15:23:27;17.50;65.20
27671;DHT22;15077;49.704;9.908;2024-03-29T15:25:54;17.50;65.00
27671;DHT22;15077;49.704;9.908;2024-03-29T15:28:21;17.60;65.00
27671;DHT22;15077;49.704;9.908;2024-03-29T15:31:07;17.60;65.00
27671;DHT22;15077;49.704;9.908;2024-03-29T15:33:34;17.50;64.90
27671;DHT22;15077;49.704;9.908;2024-03-29T15:36:00;17.50;65.60
27671;DHT22;15077;49.704;9.908;2024-03-29T15:38:25;17.50;64.90
27671;DHT22;15077;49.704;9.908;2024-03-29T15:40:55;17.50;64.80
27671;DHT22;15077;49.704;9.908;2024-03-29T15:43:21;17.50;64.90